• Join FlightAware (Why Join?)
  • Login
  • US Flag 
11:03AM EST


 

Airport Tracker/Info


-or-


 

Live Flight TrackerFlight Track Log ✈ CSN379 ✈ 16-Jun-2012 ✈ ZSPD / PVG - RJGG / NGO

Flight Track Log - Related Links

Times and Time Zones

All times are in EDT time to prevent confusion due to time zone crossing. See the CSN379 flight status page for this flight to view local times or setup timezone preferences in your user account.

Time Position Orientation Groundspeed Altitude Reporting Facility
EDT Latitude Longitude Course Direction KTS MPH feet Rate Location/Type
08:00AM 31.8794 124.1879 71° East  Level Estimated
08:01AM 31.9153 124.3094 71° East  Level Estimated
08:02AM 31.9510 124.4311 71° East  Level Estimated
08:03AM 31.9867 124.5528 71° East  Level Estimated
08:04AM 32.0222 124.6747 71° East  Level Estimated
08:05AM 32.0577 124.7967 71° East  Level Estimated
08:06AM 32.0930 124.9187 71° East  Level Estimated
08:07AM 32.1282 125.0408 71° East  Level Estimated
08:08AM 32.1632 125.1631 71° East  Level Estimated
08:09AM 32.1982 125.2854 71° East  Level Estimated
08:10AM 32.2330 125.4078 71° East  Level Estimated
08:11AM 32.2677 125.5303 72° East  Level Estimated
08:12AM 32.3023 125.6529 72° East  Level Estimated
08:13AM 32.3368 125.7757 72° East  Level Estimated
08:14AM 32.3712 125.8985 72° East  Level Estimated
08:15AM 32.4054 126.0213 72° East  Level Estimated
08:16AM 32.4395 126.1443 72° East  Level Estimated
08:17AM 32.4735 126.2674 72° East  Level Estimated
08:18AM 32.5074 126.3906 72° East  Level Estimated
08:19AM 32.5412 126.5138 72° East  Level Estimated
08:20AM 32.5748 126.6372 72° East  Level Estimated
08:21AM 32.6083 126.7606 72° East  Level Estimated
08:22AM 32.6417 126.8841 72° East  Level Estimated
08:23AM 32.6750 127.0078 72° East  Level Estimated
08:24AM 32.7082 127.1315 72° East  Level Estimated
08:25AM 32.7412 127.2553 72° East  Level Estimated
08:26AM 32.7741 127.3792 73° East  Level Estimated
08:27AM 32.8069 127.5032 73° East  Level Estimated
08:28AM 32.8396 127.6273 73° East  Level Estimated
08:29AM 32.8722 127.7515 73° East  Level Estimated
08:30AM 32.9046 127.8758 73° East  Level Estimated
08:31AM 32.9369 128.0001 73° East  Level Estimated
08:32AM 32.9691 128.1246 73° East  Level Estimated
08:33AM 33.0011 128.2491 73° East  Level Estimated
08:34AM 33.0331 128.3737 73° East  Level Estimated
08:35AM 33.0649 128.4985 73° East  Level Estimated
08:36AM 33.0965 128.6233 73° East  Level Estimated
08:37AM 33.1281 128.7482 73° East  Level Estimated
08:38AM 33.1595 128.8732 73° East  Level Estimated
08:39AM 33.1908 128.9983 73° East  Level Estimated
08:40AM 33.2220 129.1234 73° East  Level Estimated
08:41AM 33.2531 129.2487 74° East  Level Estimated
08:42AM 33.2840 129.3741 74° East  Level Estimated
08:43AM 33.3148 129.4995 74° East  Level Estimated
08:44AM 33.3455 129.6250 74° East  Level Estimated
08:45AM 33.3761 129.7506 74° East  Level Estimated
08:46AM 33.4065 129.8763 74° East  Level Estimated
08:47AM 33.4368 130.0021 74° East  Level Estimated
08:48AM 33.4670 130.1280 74° East  Level Estimated
08:49AM 33.4970 130.2540 74° East  Level Estimated
08:50AM 33.5269 130.3800 74° East  Level Estimated
08:51AM 33.5567 130.5062 74° East  Level Estimated
08:52AM 33.5864 130.6324 74° East  Level Estimated
08:53AM 33.6159 130.7587 74° East  Level Estimated
08:54AM 33.6453 130.8851 74° East  Level Estimated
08:55AM 33.6746 131.0116 74° East  Level Estimated
08:56AM 33.7038 131.1382 75° East  Level Estimated
08:57AM 33.7328 131.2648 75° East  Level Estimated
08:58AM 33.7617 131.3916 75° East  Level Estimated
08:59AM 33.7904 131.5184 75° East  Level Estimated
09:00AM 33.8191 131.6453 75° East  Level Estimated
09:01AM 33.8476 131.7723 75° East  Level Estimated
09:02AM 33.8759 131.8994 75° East  Level Estimated
09:03AM 33.9042 132.0266 75° East  Level Estimated
09:04AM 33.9323 132.1538 75° East  Level Estimated
09:05AM 33.9603 132.2812 75° East  Level Estimated
09:06AM 33.9881 132.4086 75° East  Level Estimated
09:07AM 34.0158 132.5361 75° East  Level Estimated
09:08AM 34.0434 132.6637 75° East  Level Estimated
09:09AM 34.0709 132.7913 75° East  Level Estimated
09:10AM 34.0982 132.9191 76° East  Level Estimated
09:11AM 34.1254 133.0469 76° East  Level Estimated
09:12AM 34.1524 133.1748 76° East  Level Estimated
09:13AM 34.1794 133.3028 76° East  Level Estimated
09:14AM 34.2062 133.4309 76° East  Level Estimated
09:15AM 34.2328 133.5591 76° East  Level Estimated
09:16AM 34.2593 133.6873 76° East  Level Estimated
09:17AM 34.2857 133.8156 76° East  Level Estimated
09:18AM 34.3120 133.9440 76° East  Level Estimated
09:19AM 34.3381 134.0725 76° East  Level Estimated
09:20AM 34.3641 134.2011 76° East  Level Estimated
09:21AM 34.3900 134.3297 76° East  Level Estimated
09:22AM 34.4157 134.4584 76° East  Level Estimated
09:23AM 34.4413 134.5872 76° East  Level Estimated
09:24AM 34.4667 134.7161 77° East  Level Estimated
09:25AM 34.4920 134.8451 77° East  Level Estimated
09:26AM 34.5172 134.9741 77° East  Level Estimated
09:27AM 34.5423 135.1032 77° East  Level Estimated
09:28AM 34.5672 135.2324 77° East  Level Estimated
09:29AM 34.5919 135.3617 77° East  Level Estimated
09:30AM 34.6166 135.4910 77° East  Level Estimated
09:31AM 34.6411 135.6205 77° East  Level Estimated
09:32AM 34.6654 135.7500 77° East  Level Estimated
09:33AM 34.6897 135.8795 77° East  Level Estimated
09:34AM 34.7137 136.0092 77° East  Level Estimated
09:35AM 34.7377 136.1389 77° East  Level Estimated
09:36AM 34.7615 136.2687 77° East  Level Estimated
09:37AM 34.7852 136.3986 78° East  Level Estimated
09:38AM 34.8087 136.5285 78° East  Level Estimated
09:39AM 34.8321 136.6586 78° East  Level Estimated
09:40AM 34.8554 136.7887 78° East  Level Estimated
09:41AM 34.8785 136.9188 258° West  Level Estimated
09:42AM 34.8554 136.7887 78° East  Level Estimated
09:43AM 34.8785 136.9188 258° West  Level Estimated
09:44AM 34.8554 136.7887 78° East  Level Estimated
09:45AM 34.8785 136.9188 258° West  Level Estimated
09:46AM 34.8554 136.7887 78° East  Level Estimated
09:47AM 34.8785 136.9188 78° East  Level Estimated